Wilson Gdynia — 8PSA — position and weather

sailwx.info

Track history (hours):
 
Tides and Currents Weather Stations Pressure Air Temp Water Temp Dewpoint Dewpoint Depression Visibility Wind Speed Wind Dir Waves Ship Positions

Wilson Gdynia

Last reported at 2017-Jul-28 00:29 UTC. Time now 2017-Jul-28 00:46 UTC.
Position N 36°11' W 005°25'.

Length 88 m; draft 5.2 m.

Type: Cargo ship. MMSI: 314192000.

Date/timePositionNaut miles runAvg speedWind from/ knotsBaromVisibWave heightAir tempDewpointWater temp
2017-Jul-28 00:29N 36°11' W 005°25'1 1.1
2017-Jul-28 00:00N 36°10' W 005°25'0 0.1
2017-Jul-27 23:24N 36°10' W 005°25'0 0.0
2017-Jul-27 22:56N 36°10' W 005°25'0 0.0
2017-Jul-27 22:15N 36°10' W 005°25'0 0.1
2017-Jul-27 21:59N 36°10' W 005°25'0 0.0
2017-Jul-27 21:17N 36°10' W 005°25'0 0.1
2017-Jul-27 20:05N 36°10' W 005°25'0 0.0
2017-Jul-27 19:53N 36°10' W 005°25'0 0.0
2017-Jul-27 19:29N 36°10' W 005°25'4 0.9
2017-Jul-27 15:23N 36°07' W 005°24'3 6.8
2017-Jul-27 15:00N 36°04' W 005°22'8 7.8
2017-Jul-27 13:59N 36°05' W 005°13'0 0.4
2017-Jul-27 13:26N 36°05' W 005°13'1 0.5
2017-Jul-27 12:07N 36°05' W 005°14'0 1.0
2017-Jul-27 11:59N 36°05' W 005°14'0 0.4
2017-Jul-27 11:29N 36°05' W 005°14'0 0.3
2017-Jul-27 10:33N 36°05' W 005°14'0 0.5
2017-Jul-27 10:30N 36°05' W 005°14'0 0.4
2017-Jul-27 09:59N 36°05' W 005°14'0 0.3
2017-Jul-27 09:30N 36°05' W 005°14'1 1.8
2017-Jul-27 08:51N 36°05' W 005°15'1 2.9
2017-Jul-27 08:30N 36°04' W 005°16'5 4.6
2017-Jul-27 07:26N 36°04' W 005°22'4 9.4
2017-Jul-27 07:01N 36°00' W 005°24'1210.2
2017-Jul-27 05:49N 35°56' W 005°38'3 9.5
2017-Jul-27 05:27N 35°55' W 005°42'69 9.6
2017-Jul-26 22:16N 36°06' W 007°07'511.0
2017-Jul-26 21:51N 36°07' W 007°12'510.8
2017-Jul-26 21:23N 36°08' W 007°18'410.6
2017-Jul-26 21:00N 36°09' W 007°23'510.6
2017-Jul-26 20:31N 36°10' W 007°29'710.6
2017-Jul-26 19:49N 36°12' W 007°38'310.5
2017-Jul-26 19:29N 36°13' W 007°42'1110.4
2017-Jul-26 18:26N 36°16' W 007°55'510.4
2017-Jul-26 18:00N 36°17' W 008°01'510.3
2017-Jul-26 17:31N 36°19' W 008°07'510.2
2017-Jul-26 17:00N 36°20' W 008°13'510.2
2017-Jul-26 16:31N 36°21' W 008°19'5 9.9
2017-Jul-26 16:01N 36°23' W 008°25'5 9.7
2017-Jul-26 15:31N 36°24' W 008°31'5 9.8
2017-Jul-26 14:58N 36°25' W 008°37'10 9.9
2017-Jul-26 14:00N 36°27' W 008°49'5 9.5
2017-Jul-26 13:31N 36°29' W 008°54'5 9.5
2017-Jul-26 13:01N 36°30' W 008°60'9 9.6
2017-Jul-26 12:03N 36°33' W 009°11'4 9.6
2017-Jul-26 11:36N 36°34' W 009°16'3 9.4
2017-Jul-26 11:20N 36°36' W 009°19'4 9.7
2017-Jul-26 10:56N 36°38' W 009°22'4 9.3
2017-Jul-26 10:30N 36°41' W 009°25'4 9.0
2017-Jul-26 10:00N 36°44' W 009°29'5 9.1
2017-Jul-26 09:26N 36°49' W 009°33'410.0
2017-Jul-26 09:01N 36°53' W 009°34'510.1
2017-Jul-26 08:31N 36°58' W 009°36'5 9.9
2017-Jul-26 08:00N 37°03' W 009°37'6 9.7
2017-Jul-26 07:24N 37°08' W 009°38'8 9.7
2017-Jul-26 06:37N 37°16' W 009°41'1 9.4
2017-Jul-26 06:30N 37°17' W 009°41'13 9.5
2017-Jul-26 05:05N 37°30' W 009°45'1 9.3
2017-Jul-26 05:00N 37°31' W 009°45'5 9.4
2017-Jul-26 04:30N 37°35' W 009°46'18 9.7
2017-Jul-26 02:38N 37°53' W 009°51'3 9.9
2017-Jul-26 02:22N 37°56' W 009°52'4 9.5
2017-Jul-26 01:54N 37°60' W 009°53'4 9.6
2017-Jul-26 01:28N 38°04' W 009°55'510.1
2017-Jul-26 00:59N 38°09' W 009°56'510.2
2017-Jul-26 00:30N 38°13' W 009°58'510.1
2017-Jul-26 00:01N 38°18' W 009°60'510.0
2017-Jul-25 23:31N 38°23' W 010°01'510.3
2017-Jul-25 23:00N 38°28' W 010°02'510.0
2017-Jul-25 22:30N 38°33' W 010°04'5 9.7
2017-Jul-25 22:00N 38°38' W 010°05'5 9.6
2017-Jul-25 21:31N 38°42' W 010°06'510.2
2017-Jul-25 21:01N 38°48' W 010°06'510.0
2017-Jul-25 20:30N 38°53' W 010°06'510.4
2017-Jul-25 20:00N 38°58' W 010°06'510.7
2017-Jul-25 19:31N 39°03' W 010°06'510.4
2017-Jul-25 19:00N 39°08' W 010°06'5 9.9
2017-Jul-25 18:30N 39°13' W 010°06'5 9.5
2017-Jul-25 17:57N 39°19' W 010°06'4 9.4
2017-Jul-25 17:31N 39°23' W 010°06'5 9.7
2017-Jul-25 17:01N 39°28' W 010°06'5 9.5
2017-Jul-25 16:31N 39°32' W 010°06'5 9.7
2017-Jul-25 16:01N 39°37' W 010°06'5 9.8
2017-Jul-25 15:30N 39°42' W 010°06'5 9.8
2017-Jul-25 15:00N 39°47' W 010°06'1010.0
2017-Jul-25 14:00N 39°57' W 010°06'5 9.7
2017-Jul-25 13:30N 40°02' W 010°06'7 9.6
2017-Jul-25 12:49N 40°08' W 010°06'3 9.4
2017-Jul-25 12:30N 40°11' W 010°06'5 9.2
2017-Jul-25 11:59N 40°16' W 010°06'5 9.5
2017-Jul-25 11:30N 40°21' W 010°06'  
2017-Jul-23 04:58N 48°26' W 006°20'132 6.3
2017-Jul-22 08:06N 49°44' W 003°37'1 8.6
2017-Jul-22 07:59N 49°45' W 003°36'4 8.3
2017-Jul-22 07:31N 49°47' W 003°30'4 7.6
2017-Jul-22 07:01N 49°49' W 003°25'4 7.1
2017-Jul-22 06:30N 49°50' W 003°20'3 6.8
2017-Jul-22 06:00N 49°52' W 003°16'3 5.8
2017-Jul-22 05:31N 49°53' W 003°12'5 6.0
2017-Jul-22 04:42N 49°56' W 003°06'1 6.3
2017-Jul-22 04:31N 49°56' W 003°04'3 6.6
2017-Jul-22 04:01N 49°58' W 002°60'43 9.7
2017-Jul-21 23:31N 50°12' W 001°55'111.6
2017-Jul-21 23:24N 50°12' W 001°53'411.0
2017-Jul-21 23:00N 50°13' W 001°46'510.7
2017-Jul-21 22:30N 50°15' W 001°38'5 9.9
2017-Jul-21 21:58N 50°16' W 001°30'8 8.1
2017-Jul-21 21:00N 50°18' W 001°18'3 6.7
2017-Jul-21 20:29N 50°19' W 001°13'3 5.6
2017-Jul-21 19:59N 50°19' W 001°09'14 5.4
2017-Jul-21 17:20N 50°23' W 000°47'2 7.0
2017-Jul-21 17:00N 50°24' W 000°44'12 8.5
2017-Jul-21 15:37N 50°27' W 000°26'1 9.6
2017-Jul-21 15:29N 50°28' W 000°24'510.0
2017-Jul-21 15:00N 50°29' W 000°17'510.4
2017-Jul-21 14:30N 50°30' W 000°09'510.6
2017-Jul-21 14:01N 50°32' W 000°01'510.8
2017-Jul-21 13:30N 50°33' E 000°07'510.7
2017-Jul-21 13:00N 50°35' E 000°15'39 9.0
2017-Jul-21 08:41N 50°54' E 001°08'3 8.2
2017-Jul-21 08:21N 50°56' E 001°11'3 8.3
2017-Jul-21 07:56N 50°58' E 001°15'4 8.7
2017-Jul-21 07:30N 51°01' E 001°20'5 9.6
2017-Jul-21 07:00N 51°04' E 001°26'511.0
2017-Jul-21 06:30N 51°07' E 001°33'611.9
2017-Jul-21 06:00N 51°11' E 001°40'611.8
2017-Jul-21 05:30N 51°15' E 001°46'611.8
2017-Jul-21 05:00N 51°21' E 001°51'611.1
2017-Jul-21 04:30N 51°25' E 001°55'510.5
2017-Jul-21 04:00N 51°29' E 002°01'510.0
2017-Jul-21 03:30N 51°33' E 002°06'152 8.5
2017-Jul-20 09:38N 53°30' E 004°46'80 9.6
2017-Jul-20 01:17N 53°54' E 006°55'310.4
2017-Jul-20 00:59N 53°55' E 007°00'510.6
2017-Jul-20 00:30N 53°57' E 007°09'610.7
2017-Jul-19 23:59N 53°59' E 007°18'510.8
2017-Jul-19 23:30N 53°60' E 007°26'510.8
2017-Jul-19 23:00N 54°01' E 007°35'510.9
2017-Jul-19 22:30N 54°02' E 007°44'611.1
2017-Jul-19 22:00N 54°01' E 007°54'611.4
2017-Jul-19 21:30N 54°01' E 008°03'611.4
2017-Jul-19 21:00N 54°01' E 008°13'611.5
2017-Jul-19 20:30N 53°60' E 008°23'510.8
2017-Jul-19 20:00N 53°58' E 008°32'5 9.3
2017-Jul-19 19:30N 53°57' E 008°39'4 7.8
2017-Jul-19 19:00N 53°53' E 008°42'3 7.1
2017-Jul-19 18:31N 53°51' E 008°46'4 7.0
2017-Jul-19 18:00N 53°51' E 008°52'4 7.3
2017-Jul-19 17:30N 53°51' E 008°58'4 8.1
2017-Jul-19 17:00N 53°53' E 009°05'2 4.9
2017-Jul-19 16:30N 53°54' E 009°09'0 0.7
2017-Jul-19 16:00N 53°54' E 009°09'2 4.7
2017-Jul-19 15:30N 53°55' E 009°12'4 8.7
2017-Jul-19 15:01N 53°59' E 009°17'4 7.6
2017-Jul-19 14:30N 54°03' E 009°18'7 6.1
2017-Jul-19 13:24N 54°09' E 009°22'31 4.8
2017-Jul-19 07:00N 54°22' E 010°09'4 8.0
2017-Jul-19 06:31N 54°25' E 010°13'6 9.5
2017-Jul-19 05:53N 54°30' E 010°19'10 8.8
2017-Jul-19 04:42N 54°35' E 010°35'2 8.9
2017-Jul-19 04:30N 54°35' E 010°38'4 9.1
2017-Jul-19 04:00N 54°35' E 010°46'4 8.9
2017-Jul-19 03:30N 54°36' E 010°53'4 8.7
2017-Jul-19 03:00N 54°36' E 011°01'4 8.5
2017-Jul-19 02:30N 54°37' E 011°08'4 8.5
2017-Jul-19 02:00N 54°35' E 011°15'5 8.7
2017-Jul-19 01:29N 54°33' E 011°22'17 8.5
2017-Jul-18 23:30N 54°27' E 011°48'5 8.2
2017-Jul-18 22:57N 54°27' E 011°56'4 8.5
2017-Jul-18 22:30N 54°27' E 012°03'4 8.5
2017-Jul-18 22:01N 54°28' E 012°10'4 8.7
2017-Jul-18 21:30N 54°32' E 012°12'4 9.0
2017-Jul-18 21:00N 54°36' E 012°15'40 8.7
2017-Jul-18 16:23N 54°54' E 013°17'4 9.3
2017-Jul-18 15:58N 54°55' E 013°24'4 9.6
2017-Jul-18 15:30N 54°57' E 013°31'5 9.6
2017-Jul-18 15:00N 54°58' E 013°39'9 9.3
2017-Jul-18 14:00N 55°02' E 013°54'5 9.0
2017-Jul-18 13:30N 55°03' E 014°02'4 8.7
2017-Jul-18 13:00N 55°06' E 014°08'5 9.2
2017-Jul-18 12:30N 55°09' E 014°13'4 9.1
2017-Jul-18 12:00N 55°13' E 014°18'5 9.1
2017-Jul-18 11:30N 55°16' E 014°23'5 9.1
2017-Jul-18 11:00N 55°20' E 014°28'5 9.2
2017-Jul-18 10:30N 55°24' E 014°33'4 8.9
2017-Jul-18 10:00N 55°27' E 014°38'4 8.9
2017-Jul-18 09:30N 55°29' E 014°45'4 8.9
2017-Jul-18 09:00N 55°31' E 014°52'5 9.0
2017-Jul-18 08:29N 55°33' E 014°59'4 9.1
2017-Jul-18 08:00N 55°36' E 015°06'5 9.2
2017-Jul-18 07:30N 55°38' E 015°13'5 9.2
2017-Jul-18 07:00N 55°40' E 015°20'5 9.7
2017-Jul-18 06:30N 55°43' E 015°27'5 9.8
2017-Jul-18 06:00N 55°46' E 015°34'4 8.7
2017-Jul-18 05:31N 55°47' E 015°41'5 9.5
2017-Jul-18 05:00N 55°50' E 015°48'5 9.6
2017-Jul-18 04:30N 55°52' E 015°56'5 9.7
2017-Jul-18 04:00N 55°55' E 016°03'5 9.7
2017-Jul-18 03:30N 55°57' E 016°11'5 9.8
2017-Jul-18 03:00N 55°60' E 016°18'5 9.8
2017-Jul-18 02:30N 56°02' E 016°26'5 9.8
2017-Jul-18 02:00N 56°05' E 016°33'5 9.8
2017-Jul-18 01:30N 56°08' E 016°40'  
Track history (hours):
 
Tides and Currents Weather Stations Pressure Air Temp Water Temp Dewpoint Dewpoint Depression Visibility Wind Speed Wind Dir Waves Ship Positions

Wilson Gdynia

Last reported at 2017-Jul-28 00:29 UTC. Time now 2017-Jul-28 00:46 UTC.
Position N 36°11' W 005°25'.

Length 88 m; draft 5.2 m.

Type: Cargo ship. MMSI: 314192000.

Date/timePositionNaut miles runAvg speedWind from/ knotsBaromVisibWave heightAir tempDewpointWater temp
2017-Jul-28 00:29N 36°11' W 005°25'1 1.1
2017-Jul-28 00:00N 36°10' W 005°25'0 0.1
2017-Jul-27 23:24N 36°10' W 005°25'0 0.0
2017-Jul-27 22:56N 36°10' W 005°25'0 0.0
2017-Jul-27 22:15N 36°10' W 005°25'0 0.1
2017-Jul-27 21:59N 36°10' W 005°25'0 0.0
2017-Jul-27 21:17N 36°10' W 005°25'0 0.1
2017-Jul-27 20:05N 36°10' W 005°25'0 0.0
2017-Jul-27 19:53N 36°10' W 005°25'0 0.0
2017-Jul-27 19:29N 36°10' W 005°25'4 0.9
2017-Jul-27 15:23N 36°07' W 005°24'3 6.8
2017-Jul-27 15:00N 36°04' W 005°22'8 7.8
2017-Jul-27 13:59N 36°05' W 005°13'0 0.4
2017-Jul-27 13:26N 36°05' W 005°13'1 0.5
2017-Jul-27 12:07N 36°05' W 005°14'0 1.0
2017-Jul-27 11:59N 36°05' W 005°14'0 0.4
2017-Jul-27 11:29N 36°05' W 005°14'0 0.3
2017-Jul-27 10:33N 36°05' W 005°14'0 0.5
2017-Jul-27 10:30N 36°05' W 005°14'0 0.4
2017-Jul-27 09:59N 36°05' W 005°14'0 0.3
2017-Jul-27 09:30N 36°05' W 005°14'1 1.8
2017-Jul-27 08:51N 36°05' W 005°15'1 2.9
2017-Jul-27 08:30N 36°04' W 005°16'5 4.6
2017-Jul-27 07:26N 36°04' W 005°22'4 9.4
2017-Jul-27 07:01N 36°00' W 005°24'1210.2
2017-Jul-27 05:49N 35°56' W 005°38'3 9.5
2017-Jul-27 05:27N 35°55' W 005°42'69 9.6
2017-Jul-26 22:16N 36°06' W 007°07'511.0
2017-Jul-26 21:51N 36°07' W 007°12'510.8
2017-Jul-26 21:23N 36°08' W 007°18'410.6
2017-Jul-26 21:00N 36°09' W 007°23'510.6
2017-Jul-26 20:31N 36°10' W 007°29'710.6
2017-Jul-26 19:49N 36°12' W 007°38'310.5
2017-Jul-26 19:29N 36°13' W 007°42'1110.4
2017-Jul-26 18:26N 36°16' W 007°55'510.4
2017-Jul-26 18:00N 36°17' W 008°01'510.3
2017-Jul-26 17:31N 36°19' W 008°07'510.2
2017-Jul-26 17:00N 36°20' W 008°13'510.2
2017-Jul-26 16:31N 36°21' W 008°19'5 9.9
2017-Jul-26 16:01N 36°23' W 008°25'5 9.7
2017-Jul-26 15:31N 36°24' W 008°31'5 9.8
2017-Jul-26 14:58N 36°25' W 008°37'10 9.9
2017-Jul-26 14:00N 36°27' W 008°49'5 9.5
2017-Jul-26 13:31N 36°29' W 008°54'5 9.5
2017-Jul-26 13:01N 36°30' W 008°60'9 9.6
2017-Jul-26 12:03N 36°33' W 009°11'4 9.6
2017-Jul-26 11:36N 36°34' W 009°16'3 9.4
2017-Jul-26 11:20N 36°36' W 009°19'4 9.7
2017-Jul-26 10:56N 36°38' W 009°22'4 9.3
2017-Jul-26 10:30N 36°41' W 009°25'4 9.0
2017-Jul-26 10:00N 36°44' W 009°29'5 9.1
2017-Jul-26 09:26N 36°49' W 009°33'410.0
2017-Jul-26 09:01N 36°53' W 009°34'510.1
2017-Jul-26 08:31N 36°58' W 009°36'5 9.9
2017-Jul-26 08:00N 37°03' W 009°37'6 9.7
2017-Jul-26 07:24N 37°08' W 009°38'8 9.7
2017-Jul-26 06:37N 37°16' W 009°41'1 9.4
2017-Jul-26 06:30N 37°17' W 009°41'13 9.5
2017-Jul-26 05:05N 37°30' W 009°45'1 9.3
2017-Jul-26 05:00N 37°31' W 009°45'5 9.4
2017-Jul-26 04:30N 37°35' W 009°46'18 9.7
2017-Jul-26 02:38N 37°53' W 009°51'3 9.9
2017-Jul-26 02:22N 37°56' W 009°52'4 9.5
2017-Jul-26 01:54N 37°60' W 009°53'4 9.6
2017-Jul-26 01:28N 38°04' W 009°55'510.1
2017-Jul-26 00:59N 38°09' W 009°56'510.2
2017-Jul-26 00:30N 38°13' W 009°58'510.1
2017-Jul-26 00:01N 38°18' W 009°60'510.0
2017-Jul-25 23:31N 38°23' W 010°01'510.3
2017-Jul-25 23:00N 38°28' W 010°02'510.0
2017-Jul-25 22:30N 38°33' W 010°04'5 9.7
2017-Jul-25 22:00N 38°38' W 010°05'5 9.6
2017-Jul-25 21:31N 38°42' W 010°06'510.2
2017-Jul-25 21:01N 38°48' W 010°06'510.0
2017-Jul-25 20:30N 38°53' W 010°06'510.4
2017-Jul-25 20:00N 38°58' W 010°06'510.7
2017-Jul-25 19:31N 39°03' W 010°06'510.4
2017-Jul-25 19:00N 39°08' W 010°06'5 9.9
2017-Jul-25 18:30N 39°13' W 010°06'5 9.5
2017-Jul-25 17:57N 39°19' W 010°06'4 9.4
2017-Jul-25 17:31N 39°23' W 010°06'5 9.7
2017-Jul-25 17:01N 39°28' W 010°06'5 9.5
2017-Jul-25 16:31N 39°32' W 010°06'5 9.7
2017-Jul-25 16:01N 39°37' W 010°06'5 9.8
2017-Jul-25 15:30N 39°42' W 010°06'5 9.8
2017-Jul-25 15:00N 39°47' W 010°06'1010.0
2017-Jul-25 14:00N 39°57' W 010°06'5 9.7
2017-Jul-25 13:30N 40°02' W 010°06'7 9.6
2017-Jul-25 12:49N 40°08' W 010°06'3 9.4
2017-Jul-25 12:30N 40°11' W 010°06'5 9.2
2017-Jul-25 11:59N 40°16' W 010°06'5 9.5
2017-Jul-25 11:30N 40°21' W 010°06'  
2017-Jul-23 04:58N 48°26' W 006°20'132 6.3
2017-Jul-22 08:06N 49°44' W 003°37'1 8.6
2017-Jul-22 07:59N 49°45' W 003°36'4 8.3
2017-Jul-22 07:31N 49°47' W 003°30'4 7.6
2017-Jul-22 07:01N 49°49' W 003°25'4 7.1
2017-Jul-22 06:30N 49°50' W 003°20'3 6.8
2017-Jul-22 06:00N 49°52' W 003°16'3 5.8
2017-Jul-22 05:31N 49°53' W 003°12'5 6.0
2017-Jul-22 04:42N 49°56' W 003°06'1 6.3
2017-Jul-22 04:31N 49°56' W 003°04'3 6.6
2017-Jul-22 04:01N 49°58' W 002°60'43 9.7
2017-Jul-21 23:31N 50°12' W 001°55'111.6
2017-Jul-21 23:24N 50°12' W 001°53'411.0
2017-Jul-21 23:00N 50°13' W 001°46'510.7
2017-Jul-21 22:30N 50°15' W 001°38'5 9.9
2017-Jul-21 21:58N 50°16' W 001°30'8 8.1
2017-Jul-21 21:00N 50°18' W 001°18'3 6.7
2017-Jul-21 20:29N 50°19' W 001°13'3 5.6
2017-Jul-21 19:59N 50°19' W 001°09'14 5.4
2017-Jul-21 17:20N 50°23' W 000°47'2 7.0
2017-Jul-21 17:00N 50°24' W 000°44'12 8.5
2017-Jul-21 15:37N 50°27' W 000°26'1 9.6
2017-Jul-21 15:29N 50°28' W 000°24'510.0
2017-Jul-21 15:00N 50°29' W 000°17'510.4
2017-Jul-21 14:30N 50°30' W 000°09'510.6
2017-Jul-21 14:01N 50°32' W 000°01'510.8
2017-Jul-21 13:30N 50°33' E 000°07'510.7
2017-Jul-21 13:00N 50°35' E 000°15'39 9.0
2017-Jul-21 08:41N 50°54' E 001°08'3 8.2
2017-Jul-21 08:21N 50°56' E 001°11'3 8.3
2017-Jul-21 07:56N 50°58' E 001°15'4 8.7
2017-Jul-21 07:30N 51°01' E 001°20'5 9.6
2017-Jul-21 07:00N 51°04' E 001°26'511.0
2017-Jul-21 06:30N 51°07' E 001°33'611.9
2017-Jul-21 06:00N 51°11' E 001°40'611.8
2017-Jul-21 05:30N 51°15' E 001°46'611.8
2017-Jul-21 05:00N 51°21' E 001°51'611.1
2017-Jul-21 04:30N 51°25' E 001°55'510.5
2017-Jul-21 04:00N 51°29' E 002°01'510.0
2017-Jul-21 03:30N 51°33' E 002°06'152 8.5
2017-Jul-20 09:38N 53°30' E 004°46'80 9.6
2017-Jul-20 01:17N 53°54' E 006°55'310.4
2017-Jul-20 00:59N 53°55' E 007°00'510.6
2017-Jul-20 00:30N 53°57' E 007°09'610.7
2017-Jul-19 23:59N 53°59' E 007°18'510.8
2017-Jul-19 23:30N 53°60' E 007°26'510.8
2017-Jul-19 23:00N 54°01' E 007°35'510.9
2017-Jul-19 22:30N 54°02' E 007°44'611.1
2017-Jul-19 22:00N 54°01' E 007°54'611.4
2017-Jul-19 21:30N 54°01' E 008°03'611.4
2017-Jul-19 21:00N 54°01' E 008°13'611.5
2017-Jul-19 20:30N 53°60' E 008°23'510.8
2017-Jul-19 20:00N 53°58' E 008°32'5 9.3
2017-Jul-19 19:30N 53°57' E 008°39'4 7.8
2017-Jul-19 19:00N 53°53' E 008°42'3 7.1
2017-Jul-19 18:31N 53°51' E 008°46'4 7.0
2017-Jul-19 18:00N 53°51' E 008°52'4 7.3
2017-Jul-19 17:30N 53°51' E 008°58'4 8.1
2017-Jul-19 17:00N 53°53' E 009°05'2 4.9
2017-Jul-19 16:30N 53°54' E 009°09'0 0.7
2017-Jul-19 16:00N 53°54' E 009°09'2 4.7
2017-Jul-19 15:30N 53°55' E 009°12'4 8.7
2017-Jul-19 15:01N 53°59' E 009°17'4 7.6
2017-Jul-19 14:30N 54°03' E 009°18'7 6.1
2017-Jul-19 13:24N 54°09' E 009°22'31 4.8
2017-Jul-19 07:00N 54°22' E 010°09'4 8.0
2017-Jul-19 06:31N 54°25' E 010°13'6 9.5
2017-Jul-19 05:53N 54°30' E 010°19'10 8.8
2017-Jul-19 04:42N 54°35' E 010°35'2 8.9
2017-Jul-19 04:30N 54°35' E 010°38'4 9.1
2017-Jul-19 04:00N 54°35' E 010°46'4 8.9
2017-Jul-19 03:30N 54°36' E 010°53'4 8.7
2017-Jul-19 03:00N 54°36' E 011°01'4 8.5
2017-Jul-19 02:30N 54°37' E 011°08'4 8.5
2017-Jul-19 02:00N 54°35' E 011°15'5 8.7
2017-Jul-19 01:29N 54°33' E 011°22'17 8.5
2017-Jul-18 23:30N 54°27' E 011°48'5 8.2
2017-Jul-18 22:57N 54°27' E 011°56'4 8.5
2017-Jul-18 22:30N 54°27' E 012°03'4 8.5
2017-Jul-18 22:01N 54°28' E 012°10'4 8.7
2017-Jul-18 21:30N 54°32' E 012°12'4 9.0
2017-Jul-18 21:00N 54°36' E 012°15'40 8.7
2017-Jul-18 16:23N 54°54' E 013°17'4 9.3
2017-Jul-18 15:58N 54°55' E 013°24'4 9.6
2017-Jul-18 15:30N 54°57' E 013°31'5 9.6
2017-Jul-18 15:00N 54°58' E 013°39'9 9.3
2017-Jul-18 14:00N 55°02' E 013°54'5 9.0
2017-Jul-18 13:30N 55°03' E 014°02'4 8.7
2017-Jul-18 13:00N 55°06' E 014°08'5 9.2
2017-Jul-18 12:30N 55°09' E 014°13'4 9.1
2017-Jul-18 12:00N 55°13' E 014°18'5 9.1
2017-Jul-18 11:30N 55°16' E 014°23'5 9.1
2017-Jul-18 11:00N 55°20' E 014°28'5 9.2
2017-Jul-18 10:30N 55°24' E 014°33'4 8.9
2017-Jul-18 10:00N 55°27' E 014°38'4 8.9
2017-Jul-18 09:30N 55°29' E 014°45'4 8.9
2017-Jul-18 09:00N 55°31' E 014°52'5 9.0
2017-Jul-18 08:29N 55°33' E 014°59'4 9.1
2017-Jul-18 08:00N 55°36' E 015°06'5 9.2
2017-Jul-18 07:30N 55°38' E 015°13'5 9.2
2017-Jul-18 07:00N 55°40' E 015°20'5 9.7
2017-Jul-18 06:30N 55°43' E 015°27'5 9.8
2017-Jul-18 06:00N 55°46' E 015°34'4 8.7
2017-Jul-18 05:31N 55°47' E 015°41'5 9.5
2017-Jul-18 05:00N 55°50' E 015°48'5 9.6
2017-Jul-18 04:30N 55°52' E 015°56'5 9.7
2017-Jul-18 04:00N 55°55' E 016°03'5 9.7
2017-Jul-18 03:30N 55°57' E 016°11'5 9.8
2017-Jul-18 03:00N 55°60' E 016°18'5 9.8
2017-Jul-18 02:30N 56°02' E 016°26'5 9.8
2017-Jul-18 02:00N 56°05' E 016°33'5 9.8
2017-Jul-18 01:30N 56°08' E 016°40'  

Dump ship's entire track history